Time;durP1;ratioP1;P1;durP2;ratioP2;P2;SDS_P1;SDS_P2;PMS_P1;PMS_P2;Temp;Humidity;BMP_temperature;BMP_pressure;BME280_temperature;BME280_humidity;BME280_pressure;Samples;Min_cycle;Max_cycle;Signal;HPM_P1;HPM_P2
2022/02/27 00:00:49;;;;;;;2.38;1.13;;;;;;;4.83;47.97;100559.88;5115222;27;20134;-47
2022/02/27 00:03:14;;;;;;;2.72;1.05;;;;;;;4.83;48.04;100559.00;5112313;28;20134;-45
2022/02/27 00:05:40;;;;;;;9.63;1.63;;;;;;;4.87;48.17;100563.31;5112078;28;20449;-46
2022/02/27 00:08:05;;;;;;;3.42;1.17;;;;;;;4.86;48.27;100562.47;5129023;27;20039;-45
2022/02/27 00:10:31;;;;;;;2.65;1.30;;;;;;;4.86;48.91;100570.19;5112221;28;20130;-47
2022/02/27 00:12:57;;;;;;;3.63;1.33;;;;;;;4.86;48.97;100569.34;5112054;28;20040;-46
2022/02/27 00:15:23;;;;;;;3.22;1.20;;;;;;;4.86;48.84;100572.78;5113352;28;20062;-47
2022/02/27 00:17:49;;;;;;;1.92;0.93;;;;;;;4.86;49.25;100574.50;5113241;28;20048;-48
2022/02/27 00:20:15;;;;;;;3.67;1.08;;;;;;;4.85;48.69;100581.34;5090672;28;20032;-48
2022/02/27 00:22:41;;;;;;;4.38;1.40;;;;;;;4.83;48.60;100575.31;5111892;28;20043;-46
2022/02/27 00:25:07;;;;;;;4.53;1.20;;;;;;;4.72;48.88;100558.97;5112718;28;20485;-46
2022/02/27 00:27:38;;;;;;;2.05;1.42;;;;;;;4.80;49.04;100567.59;5112780;28;20098;-44
2022/02/27 00:30:06;;;;;;;3.55;0.95;;;;;;;4.81;48.87;100584.78;5112387;28;20517;-46
2022/02/27 00:32:32;;;;;;;2.25;0.93;;;;;;;4.82;48.96;100585.63;5111259;28;20051;-45
2022/02/27 00:34:58;;;;;;;3.70;0.80;;;;;;;4.73;49.02;100568.44;5111267;28;20043;-48
2022/02/27 00:37:24;;;;;;;3.65;1.10;;;;;;;4.74;49.42;100580.47;5112349;28;20067;-46
2022/02/27 00:39:50;;;;;;;2.28;0.90;;;;;;;4.72;49.21;100582.16;5112698;28;20080;-46
2022/02/27 00:42:16;;;;;;;4.10;1.17;;;;;;;4.67;49.15;100582.13;5110851;28;20047;-47
2022/02/27 00:44:41;;;;;;;7.15;1.38;;;;;;;4.71;49.27;100598.47;5110895;28;20047;-47
2022/02/27 00:47:07;;;;;;;1.65;0.75;;;;;;;4.69;49.23;100601.06;5112394;28;20040;-47
2022/02/27 00:49:34;;;;;;;3.08;1.08;;;;;;;4.60;49.37;100584.72;5110928;28;20124;-45
2022/02/27 00:52:00;;;;;;;3.45;1.10;;;;;;;4.64;49.16;100600.16;5111765;28;20652;-47
2022/02/27 00:54:28;;;;;;;2.15;1.08;;;;;;;4.62;49.60;100612.16;5112095;28;20035;-45
2022/02/27 00:56:54;;;;;;;3.70;1.25;;;;;;;4.61;49.47;100607.88;5112528;27;20526;-46
2022/02/27 00:59:20;;;;;;;2.50;0.95;;;;;;;4.50;49.42;100599.22;5110757;28;20036;-48
2022/02/27 01:01:46;;;;;;;1.30;1.05;;;;;;;4.58;49.88;100607.00;5111302;28;20402;-50
2022/02/27 01:04:12;;;;;;;2.67;0.90;;;;;;;4.57;50.30;100616.44;5111108;27;20442;-46
2022/02/27 01:06:39;;;;;;;2.78;1.00;;;;;;;4.60;49.68;100605.31;5114743;27;20403;-47
2022/02/27 01:09:05;;;;;;;3.90;1.10;;;;;;;4.58;49.86;100615.59;5132702;27;20046;-46
2022/02/27 01:11:32;;;;;;;3.20;1.02;;;;;;;4.56;50.32;100619.00;5132930;27;20065;-47
2022/02/27 01:14:00;;;;;;;5.03;1.35;;;;;;;4.53;50.61;100622.44;5098615;28;20036;-48
2022/02/27 01:16:26;;;;;;;4.20;1.42;;;;;;;4.36;50.60;100593.16;5124981;27;20503;-48
2022/02/27 01:18:51;;;;;;;2.95;1.10;;;;;;;4.45;50.62;100615.53;5132083;27;20091;-49
2022/02/27 01:21:17;;;;;;;2.85;1.30;;;;;;;4.50;50.22;100626.72;5131584;27;20073;-46
2022/02/27 01:23:44;;;;;;;3.83;1.98;;;;;;;4.50;50.72;100631.88;5113863;27;20113;-46
2022/02/27 01:26:11;;;;;;;3.47;1.40;;;;;;;4.48;50.63;100625.84;5090456;28;20183;-46
2022/02/27 01:28:37;;;;;;;2.95;1.27;;;;;;;4.48;50.72;100633.56;5130802;27;20487;-46
2022/02/27 01:31:03;;;;;;;3.53;1.05;;;;;;;4.45;50.91;100631.81;5113415;27;20112;-47
2022/02/27 01:33:29;;;;;;;3.45;1.23;;;;;;;4.43;51.19;100630.09;5096271;27;20043;-47
2022/02/27 01:35:54;;;;;;;3.17;1.00;;;;;;;4.39;51.03;100634.38;5113610;27;20395;-47
2022/02/27 01:38:20;;;;;;;4.07;1.45;;;;;;;4.38;51.20;100642.09;5132093;27;20039;-45
2022/02/27 01:40:46;;;;;;;5.07;1.83;;;;;;;4.38;51.03;100639.50;5112109;27;20074;-48
2022/02/27 01:43:12;;;;;;;6.18;2.22;;;;;;;4.38;51.43;100639.50;5113192;27;20027;-46
2022/02/27 01:45:37;;;;;;;2.47;1.00;;;;;;;4.37;51.60;100642.94;5131392;27;20670;-45
2022/02/27 01:48:04;;;;;;;3.83;1.27;;;;;;;4.30;51.63;100636.00;5113813;27;20054;-47
2022/02/27 01:50:29;;;;;;;3.83;1.10;;;;;;;4.37;51.36;100648.06;5112627;27;20074;-44
2022/02/27 01:52:55;;;;;;;3.08;1.55;;;;;;;4.33;51.63;100644.63;5131667;27;20041;-44
2022/02/27 01:55:21;;;;;;;3.97;0.90;;;;;;;4.31;51.99;100658.34;5131889;27;20100;-46
2022/02/27 01:57:47;;;;;;;3.28;0.95;;;;;;;4.29;52.09;100653.19;5110003;28;20122;-46
2022/02/27 02:00:14;;;;;;;2.72;0.90;;;;;;;4.19;52.36;100654.81;5129623;27;20045;-46
2022/02/27 02:02:42;;;;;;;3.22;1.15;;;;;;;4.24;52.32;100670.28;5092994;28;20047;-46
2022/02/27 02:05:09;;;;;;;2.47;1.13;;;;;;;4.22;52.02;100670.31;5093428;28;20043;-46
2022/02/27 02:07:35;;;;;;;2.40;1.00;;;;;;;4.22;52.69;100674.59;5128072;27;20537;-49
2022/02/27 02:10:01;;;;;;;2.75;1.20;;;;;;;4.21;52.59;100676.28;5092908;28;20040;-48
2022/02/27 02:12:29;;;;;;;3.35;1.67;;;;;;;4.17;52.54;100671.97;5112224;28;20084;-45
2022/02/27 02:14:55;;;;;;;3.35;1.23;;;;;;;4.22;52.87;100684.88;5093014;28;20050;-46
2022/02/27 02:17:21;;;;;;;3.50;1.13;;;;;;;4.21;53.14;100693.44;5112300;28;20043;-47
2022/02/27 02:19:55;;;;;;;2.97;1.02;;;;;;;4.19;52.77;100688.28;5115508;28;20043;-45
2022/02/27 02:22:21;;;;;;;2.90;1.10;;;;;;;4.19;52.92;100688.28;5112961;28;20039;-47
2022/02/27 02:24:47;;;;;;;3.25;1.02;;;;;;;4.19;53.63;100695.13;5112189;28;20115;-52
2022/02/27 02:27:13;;;;;;;4.78;1.30;;;;;;;4.14;53.27;100689.09;5113247;28;20097;-45
2022/02/27 02:29:40;;;;;;;1.90;0.93;;;;;;;4.11;53.43;100689.94;5112424;28;20058;-45
2022/02/27 02:32:09;;;;;;;2.58;1.02;;;;;;;4.15;53.58;100695.97;5112593;28;20440;-45
2022/02/27 02:34:34;;;;;;;2.30;1.10;;;;;;;4.11;53.66;100702.81;5113101;28;20050;-44
2022/02/27 02:37:00;;;;;;;2.58;1.10;;;;;;;4.11;53.51;100701.94;5112509;28;20511;-47
2022/02/27 02:39:28;;;;;;;2.35;0.90;;;;;;;3.97;54.02;100683.84;5101729;28;20047;-45
2022/02/27 02:41:56;;;;;;;7.20;1.03;;;;;;;4.06;54.37;100709.63;5125649;28;20036;-46
2022/02/27 02:44:26;;;;;;;1.95;0.95;;;;;;;4.05;54.26;100712.19;5115226;27;20272;-46
2022/02/27 02:46:52;;;;;;;1.63;0.90;;;;;;;4.03;54.52;100712.16;5133809;27;20043;-45
2022/02/27 02:49:18;;;;;;;2.92;0.80;;;;;;;3.94;54.20;100698.38;5134898;27;20051;-45
2022/02/27 02:51:49;;;;;;;3.35;0.95;;;;;;;4.01;54.44;100721.59;5100085;27;20038;-45
2022/02/27 02:54:16;;;;;;;2.42;0.98;;;;;;;4.01;54.43;100731.03;5116604;27;20529;-46
2022/02/27 02:56:42;;;;;;;2.10;0.90;;;;;;;3.91;54.58;100721.50;5135222;27;20035;-47
2022/02/27 02:59:09;;;;;;;5.80;1.63;;;;;;;3.96;54.92;100736.13;5116795;27;20042;-45
2022/02/27 03:01:35;;;;;;;1.23;1.00;;;;;;;3.94;54.90;100734.38;5133996;27;20039;-46
2022/02/27 03:04:02;;;;;;;1.95;1.00;;;;;;;3.93;54.98;100751.53;5134841;27;20493;-46
2022/02/27 03:06:30;;;;;;;5.25;1.45;;;;;;;3.92;54.75;100759.25;5116668;27;20117;-46
2022/02/27 03:08:56;;;;;;;5.00;1.30;;;;;;;3.87;54.97;100746.34;5135087;27;20039;-47
2022/02/27 03:11:22;;;;;;;2.22;1.13;;;;;;;3.77;55.17;100736.78;5133976;27;20046;-46
2022/02/27 03:13:49;;;;;;;2.10;0.90;;;;;;;3.84;54.95;100770.31;5134679;27;20503;-47
2022/02/27 03:16:15;;;;;;;1.60;0.80;;;;;;;3.79;54.79;100759.13;5116174;27;20039;-46
2022/02/27 03:18:42;;;;;;;3.42;0.90;;;;;;;3.80;55.19;100775.41;5116113;27;20039;-47
2022/02/27 03:21:07;;;;;;;4.38;1.00;;;;;;;3.64;55.27;100756.38;5133539;27;20043;-47
2022/02/27 03:23:34;;;;;;;2.40;0.90;;;;;;;3.74;55.11;100781.34;5116301;27;20042;-47
2022/02/27 03:26:00;;;;;;;3.17;1.00;;;;;;;3.63;55.08;100769.22;5133302;27;20047;-47
2022/02/27 03:28:26;;;;;;;1.38;0.90;;;;;;;3.54;55.39;100775.13;5133343;27;20585;-47
2022/02/27 03:30:52;;;;;;;4.43;0.90;;;;;;;3.64;55.32;100799.25;5134118;27;20061;-44
2022/02/27 03:33:18;;;;;;;2.58;1.10;;;;;;;3.61;55.14;100807.75;5134312;27;20439;-46
2022/02/27 03:35:44;;;;;;;3.70;0.95;;;;;;;3.62;55.57;100811.19;5134188;27;20553;-45
2022/02/27 03:38:09;;;;;;;1.23;0.80;;;;;;;3.60;55.51;100815.47;5134456;27;20077;-44
2022/02/27 03:40:35;;;;;;;3.92;1.33;;;;;;;3.57;55.81;100811.16;5115359;27;20399;-44
2022/02/27 03:43:01;;;;;;;4.47;1.05;;;;;;;3.44;55.39;100806.72;5134337;27;20034;-46
2022/02/27 03:45:27;;;;;;;2.70;1.13;;;;;;;3.49;55.68;100830.78;5133841;27;20030;-45
2022/02/27 03:47:54;;;;;;;1.73;0.82;;;;;;;3.44;55.54;100832.44;5134907;27;20043;-47
2022/02/27 03:50:21;;;;;;;1.73;0.95;;;;;;;3.43;55.76;100833.25;5133706;27;20027;-46
2022/02/27 03:52:47;;;;;;;2.10;1.13;;;;;;;3.34;55.79;100834.03;5134254;27;20039;-47
2022/02/27 03:55:14;;;;;;;1.08;0.82;;;;;;;3.35;55.73;100842.56;5097311;27;20114;-45
2022/02/27 03:57:40;;;;;;;1.95;1.02;;;;;;;3.24;56.05;100839.00;5133816;27;20053;-45
2022/02/27 04:00:12;;;;;;;2.35;1.13;;;;;;;3.24;55.78;100857.00;5134054;27;20038;-44
2022/02/27 04:02:41;;;;;;;1.30;0.93;;;;;;;3.21;55.82;100864.66;5122577;27;20047;-46
2022/02/27 04:05:08;;;;;;;1.85;0.90;;;;;;;3.13;55.80;100868.84;5133762;27;20042;-46
2022/02/27 04:07:33;;;;;;;4.55;0.90;;;;;;;3.06;55.85;100873.00;5134072;27;20084;-47
2022/02/27 04:09:59;;;;;;;3.28;0.90;;;;;;;3.01;55.79;100866.94;5115236;27;20078;-47
2022/02/27 04:12:24;;;;;;;1.77;0.80;;;;;;;2.85;55.46;100870.09;5132738;27;20050;-45
2022/02/27 04:14:50;;;;;;;2.65;0.80;;;;;;;2.85;55.35;100875.25;5133124;27;20092;-47
2022/02/27 04:17:16;;;;;;;1.55;0.77;;;;;;;2.74;55.39;100887.03;5133214;27;20035;-45
2022/02/27 04:19:41;;;;;;;1.33;0.80;;;;;;;2.65;55.39;100889.47;5095496;27;20497;-46
2022/02/27 04:22:07;;;;;;;1.92;0.90;;;;;;;2.59;55.47;100897.94;5133003;27;20126;-44
2022/02/27 04:24:33;;;;;;;1.30;0.70;;;;;;;2.51;55.51;100907.22;5104002;27;20057;-45
2022/02/27 04:26:58;;;;;;;1.73;0.70;;;;;;;2.33;55.52;100891.47;5133137;27;20042;-46
2022/02/27 04:29:25;;;;;;;1.98;0.73;;;;;;;2.34;55.28;100919.72;5094696;28;20035;-46
2022/02/27 04:31:51;;;;;;;1.17;0.80;;;;;;;2.27;55.49;100917.00;5123107;27;20043;-45
2022/02/27 04:34:18;;;;;;;2.22;0.70;;;;;;;2.21;55.77;100916.88;5114560;27;20127;-45
2022/02/27 04:36:43;;;;;;;4.40;1.00;;;;;;;2.11;55.97;100918.41;5114057;27;20061;-46
2022/02/27 04:39:09;;;;;;;1.92;0.80;;;;;;;2.03;55.95;100917.41;5133016;27;20502;-46
2022/02/27 04:41:35;;;;;;;1.73;0.70;;;;;;;1.90;55.89;100918.84;5097857;27;20054;-47
2022/02/27 04:44:00;;;;;;;3.20;0.90;;;;;;;1.77;55.75;100927.16;5113742;27;20100;-46
2022/02/27 04:46:26;;;;;;;1.75;0.85;;;;;;;1.68;56.06;100920.09;5132324;27;20126;-46
2022/02/27 04:48:52;;;;;;;3.33;0.90;;;;;;;1.60;56.07;100923.34;5103476;28;20036;-45
2022/02/27 04:51:18;;;;;;;1.17;0.80;;;;;;;1.50;56.16;100934.22;5096231;27;20050;-44
2022/02/27 04:53:45;;;;;;;2.13;0.80;;;;;;;1.44;56.22;100939.22;5132663;27;20179;-45
2022/02/27 04:56:11;;;;;;;1.48;0.70;;;;;;;1.34;56.47;100927.91;5114976;27;20514;-46
2022/02/27 04:58:37;;;;;;;1.38;0.80;;;;;;;1.49;56.26;100950.44;5132746;27;20035;-45
2022/02/27 05:01:03;;;;;;;0.88;0.60;;;;;;;1.52;55.93;100946.22;5114510;27;20078;-45
2022/02/27 05:03:29;;;;;;;1.42;0.73;;;;;;;1.56;56.04;100948.06;5114203;27;20396;-48
2022/02/27 05:05:55;;;;;;;3.03;0.70;;;;;;;1.57;55.66;100954.03;5132237;27;20043;-48
2022/02/27 05:08:20;;;;;;;2.42;0.70;;;;;;;1.39;55.85;100917.75;5131905;27;20150;-46
2022/02/27 05:10:46;;;;;;;1.42;0.80;;;;;;;1.47;55.72;100941.84;5131403;27;20063;-46
2022/02/27 05:13:12;;;;;;;2.85;0.80;;;;;;;1.65;55.79;100963.63;5131508;27;20541;-49
2022/02/27 05:15:37;;;;;;;2.38;1.08;;;;;;;1.76;55.11;100969.00;5131396;27;20046;-46
2022/02/27 05:18:03;;;;;;;1.77;0.60;;;;;;;1.90;54.96;100970.13;5112735;27;20042;-46
2022/02/27 05:20:29;;;;;;;2.05;0.75;;;;;;;1.95;54.65;100976.22;5132470;27;20062;-47
2022/02/27 05:22:55;;;;;;;1.77;0.80;;;;;;;1.96;54.24;100962.56;5113153;27;20050;-46
2022/02/27 05:25:22;;;;;;;1.30;0.70;;;;;;;2.08;54.09;100977.38;5113966;27;20047;-45
2022/02/27 05:27:51;;;;;;;4.35;1.00;;;;;;;2.18;53.88;100988.69;5132275;27;20043;-46
2022/02/27 05:30:18;;;;;;;2.13;0.80;;;;;;;2.25;53.50;100986.25;5112688;27;20037;-44
2022/02/27 05:32:45;;;;;;;1.73;0.93;;;;;;;2.31;53.60;100986.38;5121407;27;20066;-47
2022/02/27 05:35:11;;;;;;;2.50;0.90;;;;;;;2.35;53.37;100977.06;5132193;27;20035;-46
2022/02/27 05:37:37;;;;;;;3.50;0.90;;;;;;;2.34;53.11;100976.19;5113909;27;20046;-45
2022/02/27 05:40:04;;;;;;;1.13;0.75;;;;;;;2.44;52.92;100990.06;5131706;27;20035;-46
2022/02/27 05:42:30;;;;;;;1.42;0.98;;;;;;;2.47;52.78;100993.53;5129796;27;20039;-47
2022/02/27 05:44:56;;;;;;;2.25;0.80;;;;;;;2.51;52.55;100997.88;5112902;27;20050;-46
2022/02/27 05:47:22;;;;;;;4.50;0.80;;;;;;;2.54;52.32;101000.53;5131630;27;20130;-47
2022/02/27 05:49:47;;;;;;;1.30;0.70;;;;;;;2.58;52.23;101005.72;5112957;27;20049;-47
2022/02/27 05:52:13;;;;;;;4.28;0.80;;;;;;;2.58;51.84;101009.16;5125934;27;20038;-48
2022/02/27 05:54:39;;;;;;;2.58;0.90;;;;;;;2.64;51.89;101009.25;5131419;27;20042;-46
2022/02/27 05:57:05;;;;;;;1.25;0.57;;;;;;;2.64;51.29;101013.53;5096477;27;20043;-48
2022/02/27 05:59:30;;;;;;;2.05;0.63;;;;;;;2.69;50.79;101023.06;5127973;27;20514;-46
2022/02/27 06:01:56;;;;;;;2.42;0.50;;;;;;;2.72;50.23;101022.25;5122730;27;20088;-46
2022/02/27 06:04:22;;;;;;;0.98;0.60;;;;;;;2.66;49.74;101028.16;5131872;27;20080;-47
2022/02/27 06:06:48;;;;;;;2.88;0.57;;;;;;;2.62;49.34;101023.75;5131653;27;20049;-51
2022/02/27 06:09:14;;;;;;;5.10;1.13;;;;;;;2.66;49.08;101029.84;5113464;28;20039;-46
2022/02/27 06:11:40;;;;;;;5.18;1.50;;;;;;;2.67;48.78;101039.28;5131323;27;20047;-48
2022/02/27 06:14:07;;;;;;;3.22;1.20;;;;;;;2.71;48.62;101038.50;5096324;28;20100;-49
2022/02/27 06:16:32;;;;;;;3.83;0.80;;;;;;;2.73;48.45;101047.06;5113055;28;20039;-46
2022/02/27 06:18:58;;;;;;;3.92;0.60;;;;;;;2.76;47.94;101044.59;5131641;27;20506;-49
2022/02/27 06:21:24;;;;;;;1.13;0.35;;;;;;;2.77;47.68;101047.19;5105797;28;20153;-46
2022/02/27 06:23:50;;;;;;;2.67;0.45;;;;;;;2.89;47.54;101052.53;5101552;27;20031;-50
2022/02/27 06:26:16;;;;;;;2.00;0.80;;;;;;;3.02;47.39;101048.50;5138454;27;20042;-48
2022/02/27 06:28:42;;;;;;;1.88;0.50;;;;;;;3.09;47.44;101057.19;5120282;27;20061;-47
2022/02/27 06:31:08;;;;;;;1.58;0.60;;;;;;;2.96;47.28;101036.41;5138525;27;20506;-47
2022/02/27 06:33:34;;;;;;;5.03;0.65;;;;;;;3.09;47.00;101060.59;5138088;27;20095;-46
2022/02/27 06:35:59;;;;;;;4.63;1.05;;;;;;;3.11;47.01;101061.50;5138533;27;20038;-50
2022/02/27 06:38:25;;;;;;;3.25;0.85;;;;;;;3.11;47.05;101055.50;5120078;27;20510;-45
2022/02/27 06:40:51;;;;;;;6.70;1.30;;;;;;;3.11;46.95;101064.06;5137091;27;20045;-47
2022/02/27 06:43:17;;;;;;;5.53;1.73;;;;;;;3.10;47.02;101066.59;5137897;27;20417;-48
2022/02/27 06:45:43;;;;;;;18.30;1.67;;;;;;;3.06;46.81;101067.41;5119868;27;20403;-46
2022/02/27 06:48:09;;;;;;;2.58;1.52;;;;;;;3.07;46.75;101080.28;5132573;27;20043;-47
2022/02/27 06:50:34;;;;;;;6.88;1.90;;;;;;;3.05;46.40;101075.94;5133214;27;20050;-47
2022/02/27 06:53:00;;;;;;;3.03;1.13;;;;;;;2.97;46.29;101066.41;5118481;27;20039;-47
2022/02/27 06:55:26;;;;;;;6.63;1.52;;;;;;;3.07;46.60;101080.28;5137433;27;20035;-51
2022/02/27 06:57:52;;;;;;;8.38;1.35;;;;;;;3.04;46.33;101087.03;5119207;27;20043;-50
2022/02/27 07:00:19;;;;;;;4.45;1.52;;;;;;;3.03;46.02;101088.78;5102724;27;20092;-49
2022/02/27 07:02:45;;;;;;;2.95;1.20;;;;;;;3.08;45.91;101091.44;5136070;27;20479;-46
2022/02/27 07:05:12;;;;;;;2.90;1.30;;;;;;;3.20;46.02;101101.91;5119968;27;20079;-45
2022/02/27 07:07:38;;;;;;;4.95;1.60;;;;;;;3.26;45.81;101091.75;5119103;27;20039;-46
2022/02/27 07:10:04;;;;;;;2.38;1.50;;;;;;;3.28;45.82;101103.78;5119587;27;20046;-47
2022/02/27 07:12:33;;;;;;;1.83;1.08;;;;;;;3.40;45.69;101098.84;5119889;27;20061;-49
2022/02/27 07:14:59;;;;;;;7.38;1.00;;;;;;;3.48;45.58;101110.97;5137969;27;20046;-49
2022/02/27 07:17:25;;;;;;;2.00;1.20;;;;;;;3.45;45.03;101108.38;5137742;27;20407;-48
2022/02/27 07:19:51;;;;;;;4.93;0.82;;;;;;;3.48;45.04;101110.97;5119352;27;20050;-46
2022/02/27 07:22:18;;;;;;;3.03;0.82;;;;;;;3.45;45.17;101109.25;5119677;27;20399;-45
2022/02/27 07:24:44;;;;;;;5.25;1.30;;;;;;;3.48;45.15;101110.97;5139283;27;20048;-45
2022/02/27 07:27:09;;;;;;;7.53;1.33;;;;;;;3.47;44.94;101117.81;5137206;27;20043;-45
2022/02/27 07:29:35;;;;;;;3.00;1.13;;;;;;;3.40;44.85;101106.56;5134690;27;20452;-50
2022/02/27 07:32:01;;;;;;;9.70;0.93;;;;;;;3.43;44.55;101113.47;5131537;27;20074;-46
2022/02/27 07:34:27;;;;;;;6.38;1.40;;;;;;;3.58;44.49;101131.72;5112693;27;20538;-49
2022/02/27 07:36:54;;;;;;;2.45;0.95;;;;;;;3.88;44.07;101126.22;5122726;27;20074;-46
2022/02/27 07:39:21;;;;;;;9.32;1.52;;;;;;;4.69;43.05;101126.53;5131778;27;20087;-47
2022/02/27 07:41:47;;;;;;;3.20;1.15;;;;;;;5.08;42.55;101120.97;5134323;27;20043;-46
2022/02/27 07:44:14;;;;;;;4.88;1.20;;;;;;;5.29;41.31;101122.91;5130680;27;20053;-46
2022/02/27 07:46:40;;;;;;;3.40;1.02;;;;;;;5.35;41.82;101122.09;5134124;27;20517;-46
2022/02/27 07:49:06;;;;;;;2.22;1.35;;;;;;;5.34;41.95;101125.56;5113470;27;20039;-47
2022/02/27 07:51:32;;;;;;;2.80;0.98;;;;;;;5.21;42.18;101126.25;5097576;28;20071;-45
2022/02/27 07:53:57;;;;;;;3.17;1.00;;;;;;;5.12;41.57;101116.72;5128738;27;20452;-51
2022/02/27 07:56:24;;;;;;;5.28;1.73;;;;;;;5.07;41.64;101124.41;5136945;27;20054;-48
2022/02/27 07:58:52;;;;;;;4.63;1.00;;;;;;;4.96;41.54;101126.00;5113758;27;20039;-45
2022/02/27 08:01:18;;;;;;;2.88;1.50;;;;;;;4.90;41.62;101125.94;5122066;27;20045;-46
2022/02/27 08:03:44;;;;;;;8.68;1.50;;;;;;;4.93;42.28;101122.50;5142064;27;20448;-49
2022/02/27 08:06:10;;;;;;;8.50;1.92;;;;;;;4.92;42.22;101120.81;5143969;27;20062;-48
2022/02/27 08:08:35;;;;;;;2.85;1.33;;;;;;;5.02;42.05;101126.06;5124304;27;20047;-48
2022/02/27 08:11:01;;;;;;;3.63;0.73;;;;;;;5.17;41.50;101121.94;5144897;27;20042;-46
2022/02/27 08:13:27;;;;;;;7.75;1.20;;;;;;;5.29;41.47;101122.03;5141030;27;20033;-48
2022/02/27 08:15:57;;;;;;;3.35;1.00;;;;;;;5.35;41.17;101098.91;5143999;27;20047;-47
2022/02/27 08:18:28;;;;;;;1.50;0.90;;;;;;;5.75;40.41;101131.09;5141018;27;20035;-47
2022/02/27 08:20:54;;;;;;;2.10;0.80;;;;;;;5.98;40.16;101127.00;5143192;27;20477;-46
2022/02/27 08:23:20;;;;;;;3.25;0.88;;;;;;;6.04;40.01;101123.59;5126438;27;20077;-47
2022/02/27 08:25:46;;;;;;;4.10;1.00;;;;;;;5.92;39.51;101119.19;5143056;27;20038;-49
2022/02/27 08:28:12;;;;;;;3.30;0.70;;;;;;;5.97;40.20;101114.09;5115920;27;20490;-48
2022/02/27 08:30:37;;;;;;;0.90;0.65;;;;;;;6.25;39.44;101131.47;5141320;27;20031;-48
2022/02/27 08:33:04;;;;;;;2.08;0.80;;;;;;;6.09;39.42;101137.41;5103134;27;20051;-42
2022/02/27 08:35:30;;;;;;;2.72;1.00;;;;;;;6.13;39.38;101134.84;5151195;27;20039;-46
2022/02/27 08:37:55;;;;;;;7.95;0.90;;;;;;;6.20;39.36;101133.16;5139162;27;20062;-48
2022/02/27 08:40:21;;;;;;;2.28;1.10;;;;;;;6.18;39.26;101133.16;5145161;27;20053;-43
2022/02/27 08:42:54;;;;;;;1.15;0.70;;;;;;;6.42;39.22;101137.63;5145828;27;20417;-44
2022/02/27 08:45:21;;;;;;;2.25;0.80;;;;;;;6.51;38.77;101136.78;5145746;27;20039;-45
2022/02/27 08:47:47;;;;;;;9.30;1.30;;;;;;;6.65;38.01;101132.56;5114526;27;20570;-42
2022/02/27 08:50:12;;;;;;;3.85;1.00;;;;;;;6.81;37.90;101145.56;5131707;27;20043;-43
2022/02/27 08:52:38;;;;;;;1.63;0.70;;;;;;;7.07;37.69;101144.78;5114170;27;20092;-41
2022/02/27 08:55:05;;;;;;;2.35;1.30;;;;;;;7.08;37.39;101143.94;5114892;27;20522;-42
2022/02/27 08:57:31;;;;;;;2.20;0.90;;;;;;;6.89;37.66;101142.16;5132024;27;20108;-40
2022/02/27 08:59:57;;;;;;;2.83;1.30;;;;;;;6.90;37.71;101156.81;5133011;27;20503;-41
2022/02/27 09:02:23;;;;;;;3.63;1.10;;;;;;;7.14;37.16;101150.00;5132326;27;20054;-41
2022/02/27 09:04:50;;;;;;;1.25;0.77;;;;;;;7.13;37.41;101144.81;5132844;27;20498;-41
2022/02/27 09:07:16;;;;;;;1.30;0.85;;;;;;;6.91;37.21;101149.03;5134831;27;20041;-41
2022/02/27 09:09:42;;;;;;;1.27;0.70;;;;;;;6.73;37.68;101152.44;5152654;27;20042;-41
2022/02/27 09:12:09;;;;;;;4.03;1.20;;;;;;;6.96;37.46;101149.91;5153543;27;20083;-40
2022/02/27 09:14:38;;;;;;;2.50;1.13;;;;;;;7.29;36.67;101133.66;5153457;27;20042;-41
2022/02/27 09:17:05;;;;;;;2.10;1.08;;;;;;;7.31;36.59;101155.22;5147383;27;20130;-42
2022/02/27 09:19:30;;;;;;;5.95;1.00;;;;;;;7.02;36.71;101149.94;5097296;27;20053;-41
2022/02/27 09:21:56;;;;;;;1.63;1.00;;;;;;;6.72;36.34;101153.28;5132534;27;20039;-41
2022/02/27 09:24:23;;;;;;;1.95;1.40;;;;;;;7.96;35.49;101157.00;5114217;27;20083;-41
2022/02/27 09:26:48;;;;;;;3.17;1.85;;;;;;;10.23;33.01;101160.31;5131980;27;20062;-39
2022/02/27 09:29:15;;;;;;;2.97;1.35;;;;;;;12.01;30.06;101153.69;5132443;27;20054;-40
2022/02/27 09:31:41;;;;;;;1.73;1.00;;;;;;;13.29;28.37;101156.47;5131920;27;20043;-43
2022/02/27 09:34:08;;;;;;;2.50;1.17;;;;;;;14.22;27.16;101155.94;5131753;27;20035;-46
2022/02/27 09:36:33;;;;;;;3.03;1.15;;;;;;;14.92;26.69;101161.03;5132245;27;20053;-40
2022/02/27 09:38:59;;;;;;;1.83;1.30;;;;;;;16.04;25.23;101145.31;5130202;27;20043;-40
2022/02/27 09:41:25;;;;;;;4.38;1.20;;;;;;;16.19;24.35;101143.94;5132306;27;20046;-41
2022/02/27 09:43:53;;;;;;;3.25;1.27;;;;;;;15.36;26.10;101160.59;5131637;27;20050;-41
2022/02/27 09:46:20;;;;;;;3.50;1.50;;;;;;;14.26;26.96;101161.94;5130079;27;20047;-41
2022/02/27 09:48:46;;;;;;;1.80;0.90;;;;;;;13.24;27.80;101159.16;5113349;27;20038;-40
2022/02/27 09:51:13;;;;;;;8.95;1.13;;;;;;;12.37;28.51;101161.75;5113833;27;20043;-39
2022/02/27 09:53:40;;;;;;;6.18;1.25;;;;;;;11.35;29.35;101152.94;5129912;27;20545;-41
2022/02/27 09:56:05;;;;;;;2.97;1.40;;;;;;;11.22;29.48;101157.44;5113192;27;20050;-38
2022/02/27 09:58:31;;;;;;;5.32;1.00;;;;;;;13.48;27.47;101160.38;5131809;27;20039;-42
2022/02/27 10:00:57;;;;;;;3.55;1.00;;;;;;;14.86;25.91;101159.47;5131725;27;20039;-42
2022/02/27 10:03:28;;;;;;;6.13;1.10;;;;;;;14.82;25.88;101157.81;5131707;27;20099;-42
2022/02/27 10:06:01;;;;;;;3.03;1.00;;;;;;;14.10;26.28;101151.03;5113646;27;20062;-43
2022/02/27 10:08:36;;;;;;;1.60;1.00;;;;;;;13.05;26.87;101150.84;5130899;27;20489;-49
2022/02/27 10:11:02;;;;;;;2.85;1.02;;;;;;;12.25;27.66;101152.38;5113679;28;20115;-47
2022/02/27 10:13:42;;;;;;;6.60;1.50;;;;;;;11.58;28.43;101145.66;5112034;27;20088;-41
2022/02/27 10:16:18;;;;;;;5.50;1.10;;;;;;;11.25;28.72;101148.75;5131986;27;20146;-41
2022/02/27 10:18:55;;;;;;;3.70;1.20;;;;;;;11.79;28.11;101157.53;5143468;27;20035;-42
2022/02/27 10:21:25;;;;;;;1.90;0.85;;;;;;;13.71;26.63;101158.06;5134189;27;20129;-42
2022/02/27 10:24:08;;;;;;;2.75;1.20;;;;;;;14.78;25.40;101151.81;5129757;28;20047;-42
2022/02/27 10:26:36;;;;;;;4.30;1.08;;;;;;;16.44;23.83;101146.56;5112822;28;20043;-41
2022/02/27 10:29:15;;;;;;;3.17;0.90;;;;;;;17.13;23.12;101152.81;5131809;28;20051;-42
2022/02/27 10:31:48;;;;;;;2.75;0.98;;;;;;;16.61;23.73;101153.88;5131554;28;20053;-43
2022/02/27 10:34:17;;;;;;;3.78;1.23;;;;;;;15.27;24.78;101159.13;5130988;28;20034;-43
2022/02/27 10:36:58;;;;;;;6.20;1.40;;;;;;;13.92;25.73;101152.31;5133841;27;20046;-44
2022/02/27 10:39:33;;;;;;;5.28;1.60;;;;;;;15.23;24.75;101154.00;5108891;28;20050;-51
2022/02/27 10:42:34;;;;;;;4.38;1.63;;;;;;;16.91;23.32;101151.00;5126072;28;20031;-51
2022/02/27 10:45:05;;;;;;;5.22;1.50;;;;;;;17.28;23.05;101152.25;5127525;27;20039;-51
2022/02/27 10:47:34;;;;;;;6.47;1.50;;;;;;;17.81;22.54;101151.94;5109404;27;20055;-50
2022/02/27 10:50:09;;;;;;;3.05;1.15;;;;;;;18.63;21.64;101160.69;5129050;27;20483;-53
2022/02/27 10:52:36;;;;;;;3.13;1.33;;;;;;;19.51;20.75;101150.53;5111154;27;20050;-50
2022/02/27 10:55:05;;;;;;;2.03;0.90;;;;;;;20.08;20.25;101152.09;5130436;27;20088;-51
2022/02/27 10:57:40;;;;;;;1.52;1.10;;;;;;;20.28;19.87;101153.72;5097913;27;20041;-50
2022/02/27 11:00:20;;;;;;;4.30;1.38;;;;;;;20.52;19.49;101149.84;5130328;27;20094;-53
2022/02/27 11:02:47;;;;;;;6.22;2.83;;;;;;;20.62;19.63;101150.25;5122339;28;20072;-59
2022/02/27 11:05:14;;;;;;;2.05;1.40;;;;;;;21.09;18.96;101137.94;5131836;27;20134;-59
2022/02/27 11:07:42;;;;;;;2.67;1.83;;;;;;;21.71;18.57;101161.88;5129887;27;20044;-55
2022/02/27 11:10:10;;;;;;;7.72;1.67;;;;;;;22.08;18.10;101161.50;5130463;27;20426;-55
2022/02/27 11:12:37;;;;;;;5.78;1.90;;;;;;;22.15;18.11;101164.63;5133690;27;20023;-58
2022/02/27 11:15:10;;;;;;;5.65;1.55;;;;;;;21.84;18.22;101163.72;5133674;27;20054;-59
2022/02/27 11:17:36;;;;;;;2.33;1.20;;;;;;;20.77;18.58;101153.84;5131280;27;20043;-55
2022/02/27 11:20:05;;;;;;;14.88;2.00;;;;;;;20.48;18.79;101153.59;5131773;27;21075;-56
2022/02/27 11:22:31;;;;;;;2.95;1.50;;;;;;;21.18;18.52;101162.22;5133834;27;20057;-57
2022/02/27 11:24:58;;;;;;;7.68;1.98;;;;;;;21.71;18.08;101160.09;5114327;27;20159;-57
2022/02/27 11:27:27;;;;;;;5.72;1.60;;;;;;;21.96;17.94;101163.06;5097927;27;20047;-58
2022/02/27 11:29:58;;;;;;;12.88;2.70;;;;;;;21.56;17.91;101151.19;5125041;27;20042;-59